Two Buttes, CO (81084)

11:55 PM MDT del 29 Settembre 2014 (GMT -0600)
Schenck Farms | Change Station
CLOSE
Current Station
Stazione meteo personale
Location: Holly, CO
Altitudine: 3619 ft
Stazioni meteo nelle vicinanze

Alt. 3619 ft 37.90 °N, 102.11 °W | Updated 1 minute ago

Parzialmente nuvoloso
Parzialmente nuvoloso
61.1 °F
Sembra 61.1 °F
N
23.0
Vento Variabile Vento da SSO
Gusts 28.0 mph

Oggi
Massima -- | Minima -- °F
--% Possibilità di precip.
Ieri
Massima -- | Minima -- °F
Precip. -- in
6:43 AM 6:35 PM
Luna crescente, 33% visible
Pressione 29.73 in
Visibilità 10.0 miglia
Nuvole Sereno
Punto di rugiada 58 °F
Umidità 88%
Piovosità 0.05 in
Spessore del manto nevoso 1 in , 1 in , 0 in
Raggi UV 0 fuori da 12
Polline 5.10 fuori da 12
Qualità dell'aria Non disponibile.
Flu Activity Non disponibile.
METAR KLAA 300453Z AUTO 21011KT 10SM CLR 14/12 A2985 RMK AO2 SLP065 T01390122 PNO $

More Conditions Fewer Conditions

Pressione 29.73 in
Visibilità 10.0 miglia
Nuvole Sereno
Punto di rugiada 58 °F
Umidità 88%
Piovosità 0.05 in
Spessore del manto nevoso 1 in , 1 in , 0 in
Raggi UV 0 fuori da 12
Polline 5.10 fuori da 12
Qualità dell'aria Non disponibile.
Flu Activity Non disponibile.
METAR KLAA 300453Z AUTO 21011KT 10SM CLR 14/12 A2985 RMK AO2 SLP065 T01390122 PNO $

More Conditions Fewer Conditions

10-Day Weather Forecast

Almanac

Astronomia

Sep. 29, 2014 Alba Tramonto
Ora attuale 06:43 MDT 18:35 MDT
Crepuscolo civile 06:17 MDT 19:01 MDT
Crepuscolo nautico 05:46 MDT 19:31 MDT
Crepuscolo astronomico 05:16 MDT 20:02 MDT
Luna 11:52 MDT (9/29) 22:16 MDT (9/29)
Estensione della luce visibile 12h 44m
Lunghezza del giorno
11h 52m
Tomorrow will be 2m 24s shorter.
Luna crescente, 33% of the Moon is Illuminated
Set 30
Luna crescente
Ott 1
Primo quarto
Ott 8
Luna piena
Ott 15
Ultimo quarto
Ott 23
Nuovo

Minime e massime di ieri

State Highs State Lows

Community

WunderPhotos

Upload Photos

1,757,577 foto caricate!

Nearby

Profondità neve

Stazione Profondità Altitudine
El Diente Peak 1 in 10200 ft
Apishapa 1 in 10000 ft
Beaver Creek Village 0 in 8500 ft
Beaver Divide 0 in 8280 ft
Upper San Juan 2 in 10130 ft

Attività sismica

Città  Distanza Mag. Data & Ora
Non sono state riportate attività sismiche nelle vicinanze.
Minimo Magnitudo Mostrato è 2.5.

Temperature delle acque costiere

Località Temperatura
Nessun dato dalle stazioni

Stazioni meteo nelle vicinanze